createdAt,value
2019-03-03T00:00:15.784Z,21.90
2019-03-03T00:01:15.764Z,21.50
2019-03-03T00:02:15.740Z,21.60
2019-03-03T00:03:15.718Z,22.70
2019-03-03T00:04:15.700Z,22.90
2019-03-03T00:05:15.674Z,22.40
2019-03-03T00:06:15.652Z,25.30
2019-03-03T00:07:15.632Z,22.80
2019-03-03T00:08:15.606Z,22.10
2019-03-03T00:09:15.590Z,22.50
2019-03-03T00:10:15.567Z,26.60
2019-03-03T00:11:15.547Z,28.80
2019-03-03T00:12:15.518Z,27.10
2019-03-03T00:13:15.497Z,28.90
2019-03-03T00:14:15.472Z,27.70
2019-03-03T00:15:15.449Z,29.10
2019-03-03T00:16:15.430Z,29.90
2019-03-03T00:17:15.405Z,26.40
2019-03-03T00:18:15.386Z,29.80
2019-03-03T00:19:15.359Z,32.00
2019-03-03T00:20:15.333Z,28.40
2019-03-03T00:21:15.312Z,25.20
2019-03-03T00:22:15.292Z,25.10
2019-03-03T00:23:15.318Z,25.80
2019-03-03T00:24:15.247Z,26.50
2019-03-03T00:25:15.222Z,28.50
2019-03-03T00:26:15.200Z,27.50
2019-03-03T00:27:15.179Z,31.30
2019-03-03T00:28:15.154Z,25.00
2019-03-03T00:29:15.133Z,23.40
2019-03-03T00:30:15.126Z,23.80
2019-03-03T00:31:15.094Z,23.10
2019-03-03T00:32:15.070Z,30.80
2019-03-03T00:33:15.047Z,28.00
2019-03-03T00:34:15.024Z,29.30
2019-03-03T00:35:15.002Z,27.90
2019-03-03T00:36:14.975Z,25.70
2019-03-03T00:37:14.957Z,26.80
2019-03-03T00:38:14.932Z,25.40
2019-03-03T00:39:14.913Z,23.90
2019-03-03T00:40:14.889Z,27.40
2019-03-03T00:41:14.866Z,30.60
2019-03-03T00:42:14.857Z,26.90
2019-03-03T00:43:14.825Z,26.70
2019-03-03T00:44:14.802Z,24.10
2019-03-03T00:45:14.777Z,26.00
2019-03-03T00:46:14.755Z,25.00
2019-03-03T00:47:14.735Z,23.80
2019-03-03T00:48:14.713Z,26.50
2019-03-03T00:49:14.688Z,30.00
2019-03-03T00:50:14.668Z,28.70
2019-03-03T00:51:14.646Z,25.70
2019-03-03T00:52:14.617Z,24.80
2019-03-03T00:53:14.601Z,24.00
2019-03-03T00:54:14.582Z,25.50
2019-03-03T00:55:14.554Z,22.90
2019-03-03T00:56:14.535Z,20.50
2019-03-03T00:57:14.510Z,24.00
2019-03-03T00:58:14.485Z,26.50
2019-03-03T00:59:14.461Z,26.20
2019-03-03T01:00:14.440Z,25.10
2019-03-03T01:01:14.417Z,26.10
2019-03-03T01:02:14.399Z,26.00
2019-03-03T01:03:14.377Z,25.60
2019-03-03T01:04:14.355Z,32.80
2019-03-03T01:05:14.329Z,34.80
2019-03-03T01:06:14.309Z,27.40
2019-03-03T01:07:14.285Z,30.30
2019-03-03T01:08:14.269Z,26.40
2019-03-03T01:09:14.243Z,23.80
2019-03-03T01:10:14.229Z,22.90
2019-03-03T01:11:14.201Z,21.70
2019-03-03T01:12:14.174Z,22.10
2019-03-03T01:13:14.159Z,23.50
2019-03-03T01:14:14.129Z,24.50
2019-03-03T01:15:14.111Z,25.70
2019-03-03T01:16:14.139Z,23.70
2019-03-03T01:17:14.061Z,22.70
2019-03-03T01:18:14.044Z,22.60
2019-03-03T01:19:14.024Z,22.60
2019-03-03T01:20:13.999Z,23.30
2019-03-03T01:21:13.975Z,24.00
2019-03-03T01:22:13.957Z,22.00
2019-03-03T01:23:13.935Z,23.30
2019-03-03T01:24:13.910Z,23.00
2019-03-03T01:25:13.886Z,22.10
2019-03-03T01:26:13.862Z,21.80
2019-03-03T01:27:13.847Z,22.80
2019-03-03T01:28:13.820Z,22.90
2019-03-03T01:29:13.803Z,22.60
2019-03-03T01:30:13.776Z,23.20
2019-03-03T01:31:13.751Z,23.60
2019-03-03T01:32:13.732Z,23.20
2019-03-03T01:33:13.715Z,23.90
2019-03-03T01:34:13.688Z,21.90
2019-03-03T01:35:13.667Z,25.30
2019-03-03T01:36:13.644Z,25.10
2019-03-03T01:37:13.619Z,27.00
2019-03-03T01:38:13.597Z,27.80
2019-03-03T01:39:13.575Z,27.10
2019-03-03T01:40:13.554Z,28.10
2019-03-03T01:41:13.528Z,30.00
2019-03-03T01:42:13.511Z,30.70
2019-03-03T01:43:13.491Z,29.30
2019-03-03T01:44:13.465Z,31.10
2019-03-03T01:45:13.437Z,33.60
2019-03-03T01:46:13.418Z,35.60
2019-03-03T01:47:13.399Z,35.90
2019-03-03T01:48:13.380Z,35.70
2019-03-03T01:49:13.356Z,37.90
2019-03-03T01:50:13.330Z,39.30
2019-03-03T01:51:13.318Z,41.50
2019-03-03T01:52:13.286Z,40.80
2019-03-03T01:53:13.267Z,43.60
2019-03-03T01:54:13.242Z,43.60
2019-03-03T01:55:13.218Z,41.50
2019-03-03T01:56:13.198Z,42.90
2019-03-03T01:57:13.173Z,41.40
2019-03-03T01:58:13.160Z,44.60
2019-03-03T01:59:13.130Z,49.40
2019-03-03T02:00:13.112Z,43.10
2019-03-03T02:01:13.086Z,45.30
2019-03-03T02:02:13.069Z,40.80
2019-03-03T02:03:13.042Z,41.50
2019-03-03T02:04:13.024Z,41.30
2019-03-03T02:05:13.002Z,38.40
2019-03-03T02:06:12.976Z,42.10
2019-03-03T02:07:12.956Z,42.20
2019-03-03T02:08:12.940Z,46.00
2019-03-03T02:09:12.910Z,42.30
2019-03-03T02:10:12.897Z,52.00
2019-03-03T02:11:12.864Z,50.10
2019-03-03T02:12:12.849Z,50.60
2019-03-03T02:13:12.819Z,49.70
2019-03-03T02:14:12.800Z,46.30
2019-03-03T02:15:12.779Z,48.70
2019-03-03T02:16:12.756Z,50.20
2019-03-03T02:17:12.736Z,49.30
2019-03-03T02:18:12.715Z,51.90
2019-03-03T02:19:12.688Z,50.40
2019-03-03T02:20:12.664Z,56.00
2019-03-03T02:21:12.644Z,49.70
2019-03-03T02:22:12.622Z,51.30
2019-03-03T02:23:12.606Z,49.60
2019-03-03T02:24:12.575Z,49.50
2019-03-03T02:25:12.552Z,47.40
2019-03-03T02:26:12.540Z,45.90
2019-03-03T02:27:12.518Z,47.50
2019-03-03T02:28:12.491Z,45.00
2019-03-03T02:29:12.467Z,51.60
2019-03-03T02:30:12.443Z,46.30
2019-03-03T02:31:12.426Z,47.00
2019-03-03T02:32:12.405Z,46.40
2019-03-03T02:33:12.378Z,46.30
2019-03-03T02:34:12.360Z,54.20
2019-03-03T02:35:12.336Z,40.50
2019-03-03T02:36:12.318Z,46.10
2019-03-03T02:37:12.290Z,44.90
2019-03-03T02:38:12.269Z,46.50
2019-03-03T02:39:12.249Z,45.10
2019-03-03T02:40:12.220Z,44.00
2019-03-03T02:41:12.208Z,44.70
2019-03-03T02:42:12.178Z,38.20
2019-03-03T02:43:12.159Z,42.70
2019-03-03T02:44:12.137Z,39.90
2019-03-03T02:45:12.116Z,40.60
2019-03-03T02:46:12.094Z,42.60
2019-03-03T02:47:12.073Z,40.70
2019-03-03T02:48:12.047Z,41.20
2019-03-03T02:49:12.023Z,39.60
2019-03-03T02:50:12.006Z,41.20
2019-03-03T02:51:11.980Z,42.30
2019-03-03T02:52:11.962Z,42.00
2019-03-03T02:53:11.940Z,38.10
2019-03-03T02:54:11.916Z,37.40
2019-03-03T02:55:11.896Z,38.90
2019-03-03T02:56:11.867Z,39.40
2019-03-03T02:57:11.849Z,43.80
2019-03-03T02:58:11.829Z,47.50
2019-03-03T02:59:11.803Z,56.40
2019-03-03T03:00:11.796Z,58.20
2019-03-03T03:01:11.762Z,64.70
2019-03-03T03:02:11.736Z,66.00
2019-03-03T03:03:11.717Z,67.90
2019-03-03T03:04:11.695Z,80.60
2019-03-03T03:05:11.670Z,87.60
2019-03-03T03:06:11.648Z,79.10
2019-03-03T03:07:11.629Z,81.50
2019-03-03T03:08:11.602Z,83.10
2019-03-03T03:09:11.585Z,79.80
2019-03-03T03:10:11.561Z,81.10
2019-03-03T03:11:11.540Z,90.50
2019-03-03T03:12:11.521Z,99.00
2019-03-03T03:13:11.498Z,86.80
2019-03-03T03:14:11.471Z,96.00
2019-03-03T03:15:11.454Z,85.70
2019-03-03T03:16:11.430Z,92.20
2019-03-03T03:17:11.405Z,99.00
2019-03-03T03:18:11.380Z,96.30
2019-03-03T03:19:11.368Z,92.40
2019-03-03T03:20:11.336Z,85.30
2019-03-03T03:21:11.320Z,102.10
2019-03-03T03:22:11.296Z,94.90
2019-03-03T03:23:11.276Z,88.00
2019-03-03T03:24:11.341Z,96.60
2019-03-03T03:25:11.231Z,96.60
2019-03-03T03:26:11.209Z,100.50
2019-03-03T03:27:11.183Z,96.60
2019-03-03T03:28:11.161Z,97.70
2019-03-03T03:29:11.139Z,95.90
2019-03-03T03:30:11.120Z,103.10
2019-03-03T03:31:11.121Z,86.40
2019-03-03T03:32:11.079Z,102.40
2019-03-03T03:33:11.066Z,98.60
2019-03-03T03:34:11.066Z,99.60
2019-03-03T03:35:11.005Z,98.60
2019-03-03T03:36:10.981Z,105.00
2019-03-03T03:37:10.968Z,101.30
2019-03-03T03:38:10.936Z,106.90
2019-03-03T03:39:10.935Z,99.70
2019-03-03T03:40:10.896Z,109.40
2019-03-03T03:41:10.878Z,111.10
2019-03-03T03:42:10.851Z,97.30
2019-03-03T03:43:10.826Z,91.70
2019-03-03T03:44:10.805Z,97.80
2019-03-03T03:45:10.785Z,102.90
2019-03-03T03:46:10.766Z,99.10
2019-03-03T03:47:10.740Z,107.70
2019-03-03T03:48:10.733Z,104.60
2019-03-03T03:49:10.698Z,112.90
2019-03-03T03:50:10.673Z,99.00
2019-03-03T03:51:10.650Z,99.90
2019-03-03T03:52:10.629Z,109.90
2019-03-03T03:53:10.608Z,90.10
2019-03-03T03:54:10.585Z,88.20
2019-03-03T03:55:10.561Z,89.50
2019-03-03T03:56:10.540Z,93.00
2019-03-03T03:57:10.516Z,97.20
2019-03-03T03:58:10.491Z,90.60
2019-03-03T03:59:10.474Z,89.60
2019-03-03T04:00:10.450Z,97.40
2019-03-03T04:01:10.430Z,93.10
2019-03-03T04:02:10.407Z,90.30
2019-03-03T04:03:10.386Z,93.90
2019-03-03T04:04:10.363Z,94.30
2019-03-03T04:05:10.340Z,83.10
2019-03-03T04:06:10.363Z,83.80
2019-03-03T04:07:10.297Z,75.00
2019-03-03T04:08:10.276Z,85.20
2019-03-03T04:09:10.252Z,76.70
2019-03-03T04:10:10.231Z,82.70
2019-03-03T04:11:10.205Z,88.80
2019-03-03T04:12:10.183Z,86.00
2019-03-03T04:13:10.162Z,83.40
2019-03-03T04:14:10.137Z,82.80
2019-03-03T04:15:10.127Z,80.40
2019-03-03T04:16:10.102Z,80.60
2019-03-03T04:17:10.070Z,81.90
2019-03-03T04:18:10.049Z,77.70
2019-03-03T04:19:10.030Z,85.50
2019-03-03T04:20:10.008Z,82.90
2019-03-03T04:21:09.987Z,82.00
2019-03-03T04:22:09.966Z,79.90
2019-03-03T04:23:09.944Z,85.20
2019-03-03T04:24:09.920Z,89.00
2019-03-03T04:25:09.899Z,86.20
2019-03-03T04:26:09.875Z,89.10
2019-03-03T04:27:09.848Z,90.40
2019-03-03T04:28:09.831Z,83.60
2019-03-03T04:29:09.809Z,92.20
2019-03-03T04:30:09.794Z,100.50
2019-03-03T04:31:09.766Z,105.70
2019-03-03T04:32:09.744Z,91.10
2019-03-03T04:33:09.718Z,87.70
2019-03-03T04:34:09.703Z,87.60
2019-03-03T04:35:09.675Z,76.30
2019-03-03T04:36:09.650Z,75.80
2019-03-03T04:37:09.639Z,74.30
2019-03-03T04:38:09.610Z,73.80
2019-03-03T04:39:09.588Z,69.70
2019-03-03T04:40:09.568Z,71.80
2019-03-03T04:41:09.544Z,72.60
2019-03-03T04:42:09.516Z,75.50
2019-03-03T04:43:09.496Z,81.70
2019-03-03T04:44:09.480Z,69.00
2019-03-03T04:45:09.456Z,70.40
2019-03-03T04:46:09.430Z,65.30
2019-03-03T04:47:09.409Z,68.10
2019-03-03T04:48:09.386Z,68.40
2019-03-03T04:49:09.362Z,66.30
2019-03-03T04:50:09.344Z,70.50
2019-03-03T04:51:09.323Z,67.20
2019-03-03T04:52:09.300Z,63.80
2019-03-03T04:53:09.275Z,69.40
2019-03-03T04:54:09.257Z,66.80
2019-03-03T04:55:09.232Z,58.90
2019-03-03T04:56:09.212Z,60.10
2019-03-03T04:57:09.188Z,63.10
2019-03-03T04:58:09.166Z,65.10
2019-03-03T04:59:09.149Z,55.00
2019-03-03T05:00:09.123Z,56.70
2019-03-03T05:01:09.102Z,60.60
2019-03-03T05:02:09.081Z,54.80
2019-03-03T05:03:09.058Z,63.50
2019-03-03T05:04:09.038Z,55.70
2019-03-03T05:05:09.015Z,54.60
2019-03-03T05:06:08.991Z,53.30
2019-03-03T05:07:08.968Z,52.00
2019-03-03T05:08:08.946Z,48.80
2019-03-03T05:09:08.925Z,49.60
2019-03-03T05:10:08.906Z,49.30
2019-03-03T05:11:08.884Z,51.50
2019-03-03T05:12:08.859Z,51.20
2019-03-03T05:13:08.835Z,47.80
2019-03-03T05:14:08.814Z,48.60
2019-03-03T05:15:08.791Z,46.30
2019-03-03T05:16:08.773Z,45.10
2019-03-03T05:17:08.849Z,44.50
2019-03-03T05:18:08.735Z,45.70
2019-03-03T05:19:08.713Z,41.50
2019-03-03T05:20:08.688Z,43.80
2019-03-03T05:21:08.664Z,39.50
2019-03-03T05:22:08.643Z,42.50
2019-03-03T05:23:08.720Z,41.30
2019-03-03T05:24:08.595Z,42.70
2019-03-03T05:25:08.577Z,39.00
2019-03-03T05:26:08.549Z,37.80
2019-03-03T05:27:08.532Z,40.00
2019-03-03T05:28:08.507Z,39.30
2019-03-03T05:29:08.487Z,39.20
2019-03-03T05:30:08.463Z,37.70
2019-03-03T05:31:08.444Z,33.30
2019-03-03T05:32:08.429Z,35.60
2019-03-03T05:33:08.401Z,36.70
2019-03-03T05:34:08.380Z,36.60
2019-03-03T05:35:08.360Z,33.10
2019-03-03T05:36:08.337Z,34.00
2019-03-03T05:37:08.316Z,33.40
2019-03-03T05:38:08.288Z,33.40
2019-03-03T05:39:08.271Z,34.20
2019-03-03T05:40:08.249Z,32.20
2019-03-03T05:41:08.223Z,33.50
2019-03-03T05:42:08.215Z,33.40
2019-03-03T05:43:08.185Z,32.30
2019-03-03T05:44:08.159Z,33.40
2019-03-03T05:45:08.146Z,33.70
2019-03-03T05:46:08.117Z,31.00
2019-03-03T05:47:08.095Z,28.90
2019-03-03T05:48:08.079Z,31.20
2019-03-03T05:49:08.053Z,31.10
2019-03-03T05:50:08.027Z,30.90
2019-03-03T05:51:08.011Z,29.40
2019-03-03T05:52:07.987Z,28.00
2019-03-03T05:53:07.963Z,26.50
2019-03-03T05:54:07.942Z,28.90
2019-03-03T05:55:07.923Z,26.90
2019-03-03T05:56:07.901Z,25.50
2019-03-03T05:57:07.880Z,26.00
2019-03-03T05:58:07.856Z,26.90
2019-03-03T05:59:07.831Z,25.40
2019-03-03T06:00:07.815Z,28.20
2019-03-03T06:01:07.797Z,26.60
2019-03-03T06:02:07.771Z,27.70
2019-03-03T06:03:07.739Z,26.60
2019-03-03T06:04:07.724Z,26.30
2019-03-03T06:05:07.701Z,26.20
2019-03-03T06:06:07.682Z,29.50
2019-03-03T06:07:07.657Z,27.10
2019-03-03T06:08:07.638Z,25.60
2019-03-03T06:09:07.619Z,24.00
2019-03-03T06:10:07.596Z,23.10
2019-03-03T06:11:07.572Z,26.30
2019-03-03T06:12:07.553Z,24.90
2019-03-03T06:13:07.533Z,22.70
2019-03-03T06:14:07.514Z,22.00
2019-03-03T06:15:07.491Z,23.70
2019-03-03T06:16:07.467Z,23.00
2019-03-03T06:17:07.447Z,25.10
2019-03-03T06:18:07.423Z,22.30
2019-03-03T06:19:07.400Z,22.90
2019-03-03T06:20:07.381Z,21.10
2019-03-03T06:21:07.355Z,20.80
2019-03-03T06:22:07.342Z,23.00
2019-03-03T06:23:07.315Z,23.50
2019-03-03T06:24:07.293Z,21.00
2019-03-03T06:25:07.271Z,22.20
2019-03-03T06:26:07.254Z,24.70
2019-03-03T06:27:07.231Z,20.60
2019-03-03T06:28:07.206Z,22.30
2019-03-03T06:29:07.188Z,19.30
2019-03-03T06:30:07.166Z,18.70
2019-03-03T06:31:07.145Z,19.70
2019-03-03T06:32:07.126Z,19.20
2019-03-03T06:33:07.101Z,19.20
2019-03-03T06:34:07.080Z,19.00
2019-03-03T06:35:07.056Z,17.70
2019-03-03T06:36:07.037Z,17.80
2019-03-03T06:37:07.015Z,16.80
2019-03-03T06:38:06.996Z,17.70
2019-03-03T06:39:06.970Z,18.40
2019-03-03T06:40:06.951Z,16.30
2019-03-03T06:41:06.934Z,15.70
2019-03-03T06:42:06.908Z,14.80
2019-03-03T06:43:06.884Z,15.80
2019-03-03T06:44:06.864Z,15.50
2019-03-03T06:45:06.942Z,14.70
2019-03-03T06:46:06.825Z,14.10
2019-03-03T06:47:06.802Z,15.30
2019-03-03T06:48:06.790Z,14.20
2019-03-03T06:49:06.758Z,15.20
2019-03-03T06:50:06.736Z,13.90
2019-03-03T06:51:06.716Z,13.90
2019-03-03T06:52:06.692Z,14.70
2019-03-03T06:53:06.682Z,13.80
2019-03-03T06:54:06.652Z,13.40
2019-03-03T06:55:06.632Z,13.40
2019-03-03T06:56:06.610Z,12.40
2019-03-03T06:57:06.586Z,13.70
2019-03-03T06:58:06.570Z,12.30
2019-03-03T06:59:06.543Z,12.60
2019-03-03T07:00:06.524Z,11.60
2019-03-03T07:01:06.505Z,12.00
2019-03-03T07:02:06.481Z,12.10
2019-03-03T07:03:06.461Z,11.00
2019-03-03T07:04:06.446Z,11.60
2019-03-03T07:05:06.418Z,11.20
2019-03-03T07:06:06.390Z,11.20
2019-03-03T07:07:06.374Z,10.60
2019-03-03T07:08:06.350Z,10.70
2019-03-03T07:09:06.330Z,11.00
2019-03-03T07:10:06.312Z,9.70
2019-03-03T07:11:06.291Z,10.30
2019-03-03T07:12:06.266Z,10.00
2019-03-03T07:13:06.244Z,9.90
2019-03-03T07:14:06.224Z,9.80
2019-03-03T07:15:06.204Z,8.70
2019-03-03T07:16:06.193Z,8.80
2019-03-03T07:17:06.164Z,8.30
2019-03-03T07:18:06.145Z,9.30
2019-03-03T07:19:06.122Z,8.70
2019-03-03T07:20:06.102Z,8.40
2019-03-03T07:21:06.081Z,9.60
2019-03-03T07:22:06.179Z,8.10
2019-03-03T07:23:06.036Z,7.80
2019-03-03T07:24:06.015Z,11.10
2019-03-03T07:25:05.997Z,9.90
2019-03-03T07:26:05.976Z,9.80
2019-03-03T07:27:05.951Z,10.80
2019-03-03T07:28:05.938Z,9.50
2019-03-03T07:29:05.913Z,10.50
2019-03-03T07:30:05.890Z,7.70
2019-03-03T07:31:05.866Z,7.20
2019-03-03T07:32:05.849Z,7.20
2019-03-03T07:33:05.821Z,7.10
2019-03-03T07:34:05.807Z,6.90
2019-03-03T07:35:05.783Z,7.20
2019-03-03T07:36:05.759Z,7.30
2019-03-03T07:37:05.741Z,6.40
2019-03-03T07:38:05.719Z,6.50
2019-03-03T07:39:05.699Z,7.00
2019-03-03T07:40:05.685Z,6.30
2019-03-03T07:41:05.661Z,6.80
2019-03-03T07:42:05.638Z,7.50
2019-03-03T07:43:05.612Z,6.30
2019-03-03T07:44:05.595Z,5.70
2019-03-03T07:45:05.571Z,6.10
2019-03-03T07:46:05.553Z,6.20
2019-03-03T07:47:05.530Z,6.60
2019-03-03T07:48:05.514Z,5.30
2019-03-03T07:49:05.488Z,5.70
2019-03-03T07:50:05.471Z,5.50
2019-03-03T07:51:05.452Z,6.20
2019-03-03T07:52:05.429Z,5.90
2019-03-03T07:53:05.408Z,5.80
2019-03-03T07:54:05.386Z,5.30
2019-03-03T07:55:05.370Z,5.80
2019-03-03T07:56:05.345Z,6.10
2019-03-03T07:57:05.322Z,5.30
2019-03-03T07:58:05.312Z,6.10
2019-03-03T07:59:05.284Z,5.00
2019-03-03T08:00:05.264Z,5.40
2019-03-03T08:01:05.239Z,5.60
2019-03-03T08:02:05.223Z,4.90
2019-03-03T08:03:05.199Z,5.10
2019-03-03T08:04:05.183Z,5.00
2019-03-03T08:05:05.158Z,5.10
2019-03-03T08:06:05.140Z,4.70
2019-03-03T08:07:05.123Z,5.20
2019-03-03T08:08:05.102Z,5.10
2019-03-03T08:09:05.083Z,5.60
2019-03-03T08:10:05.060Z,5.90
2019-03-03T08:11:05.037Z,4.70
2019-03-03T08:12:05.017Z,4.70
2019-03-03T08:13:09.271Z,5.00
2019-03-03T08:14:04.979Z,4.80
2019-03-03T08:15:04.957Z,4.80
2019-03-03T08:16:04.939Z,5.60
2019-03-03T08:17:04.915Z,5.40
2019-03-03T08:18:04.895Z,6.50
2019-03-03T08:19:04.876Z,4.60
2019-03-03T08:20:04.853Z,5.30
2019-03-03T08:21:04.834Z,6.70
2019-03-03T08:22:04.824Z,5.90
2019-03-03T08:23:04.800Z,5.30
2019-03-03T08:24:04.771Z,6.80
2019-03-03T08:25:04.753Z,4.60
2019-03-03T08:26:04.736Z,5.80
2019-03-03T08:27:04.715Z,5.90
2019-03-03T08:28:04.702Z,5.20
2019-03-03T08:29:04.673Z,5.20
2019-03-03T08:30:04.654Z,4.50
2019-03-03T08:31:04.631Z,4.90
2019-03-03T08:32:04.611Z,5.50
2019-03-03T08:33:04.594Z,4.00
2019-03-03T08:34:04.568Z,4.90
2019-03-03T08:35:04.555Z,4.90
2019-03-03T08:36:04.535Z,7.20
2019-03-03T08:37:04.513Z,4.80
2019-03-03T08:38:04.499Z,6.00
2019-03-03T08:39:04.475Z,4.40
2019-03-03T08:40:04.453Z,5.60
2019-03-03T08:41:04.434Z,4.20
2019-03-03T08:42:04.412Z,4.30
2019-03-03T08:43:04.393Z,5.00
2019-03-03T08:44:04.373Z,5.40
2019-03-03T08:45:04.358Z,5.30
2019-03-03T08:46:04.334Z,5.10
2019-03-03T08:47:04.314Z,4.20
2019-03-03T08:48:04.300Z,4.90
2019-03-03T08:49:04.270Z,4.10
2019-03-03T08:50:04.252Z,5.80
2019-03-03T08:51:04.235Z,4.90
2019-03-03T08:52:04.212Z,4.80
2019-03-03T08:53:04.197Z,6.40
2019-03-03T08:54:04.173Z,4.90
2019-03-03T08:55:04.155Z,4.90
2019-03-03T08:56:04.143Z,3.70
2019-03-03T08:57:04.115Z,3.60
2019-03-03T08:58:04.094Z,4.70
2019-03-03T08:59:04.079Z,4.80
2019-03-03T09:00:04.055Z,7.00
2019-03-03T09:01:04.035Z,4.90
2019-03-03T09:02:04.019Z,5.70
2019-03-03T09:03:04.010Z,4.70
2019-03-03T09:04:03.978Z,4.90
2019-03-03T09:05:03.958Z,6.00
2019-03-03T09:06:03.938Z,4.10
2019-03-03T09:07:03.925Z,6.10
2019-03-03T09:08:03.907Z,4.20
2019-03-03T09:09:03.893Z,6.00
2019-03-03T09:10:03.860Z,5.50
2019-03-03T09:11:03.845Z,3.60
2019-03-03T09:12:03.820Z,4.80
2019-03-03T09:13:03.804Z,5.60
2019-03-03T09:14:03.783Z,5.00
2019-03-03T09:15:03.767Z,4.90
2019-03-03T09:16:03.746Z,7.60
2019-03-03T09:17:03.721Z,7.10
2019-03-03T09:18:03.710Z,8.30
2019-03-03T09:19:03.686Z,8.40
2019-03-03T09:20:03.664Z,6.60
2019-03-03T09:21:03.645Z,5.90
2019-03-03T09:22:04.746Z,7.00
2019-03-03T09:23:03.608Z,8.00
2019-03-03T09:24:03.591Z,8.40
2019-03-03T09:25:03.563Z,6.40
2019-03-03T09:26:03.546Z,6.50
2019-03-03T09:27:03.530Z,5.40
2019-03-03T09:28:03.520Z,6.00
2019-03-03T09:29:03.486Z,7.00
2019-03-03T09:30:03.468Z,5.90
2019-03-03T09:31:03.447Z,7.30
2019-03-03T09:32:03.428Z,7.80
2019-03-03T09:33:03.410Z,6.10
2019-03-03T09:34:03.391Z,7.00
2019-03-03T09:35:03.366Z,5.70
2019-03-03T09:36:03.349Z,6.80
2019-03-03T09:37:03.329Z,6.40
2019-03-03T09:38:03.312Z,4.80
2019-03-03T09:39:03.289Z,5.20
2019-03-03T09:40:09.503Z,5.10
2019-03-03T09:41:03.250Z,4.90
2019-03-03T09:42:03.230Z,5.50
2019-03-03T09:43:03.212Z,6.20
2019-03-03T09:44:03.191Z,6.50
2019-03-03T09:45:03.175Z,4.50
2019-03-03T09:46:03.147Z,5.70
2019-03-03T09:47:03.132Z,4.90
2019-03-03T09:48:03.117Z,4.20
2019-03-03T09:49:03.128Z,5.10
2019-03-03T09:50:03.066Z,4.80
2019-03-03T09:51:03.053Z,4.00
2019-03-03T09:52:03.035Z,4.90
2019-03-03T09:53:03.025Z,5.10
2019-03-03T09:54:02.999Z,5.20
2019-03-03T09:55:02.970Z,4.20
2019-03-03T09:56:02.958Z,5.00
2019-03-03T09:57:02.928Z,6.10
2019-03-03T09:58:02.910Z,5.20
2019-03-03T09:59:02.892Z,4.20
2019-03-03T10:00:02.888Z,5.20
2019-03-03T10:01:02.852Z,4.90
2019-03-03T10:02:02.845Z,4.40
2019-03-03T10:03:02.815Z,4.80
2019-03-03T10:04:02.793Z,5.10
2019-03-03T10:05:02.770Z,5.20
2019-03-03T10:06:02.756Z,4.30
2019-03-03T10:07:02.735Z,4.00
2019-03-03T10:08:02.715Z,5.40
2019-03-03T10:09:02.695Z,4.60
2019-03-03T10:10:02.675Z,5.40
2019-03-03T10:11:02.655Z,4.10
2019-03-03T10:12:02.631Z,4.60
2019-03-03T10:13:02.617Z,5.30
2019-03-03T10:14:02.592Z,4.30
2019-03-03T10:15:02.580Z,3.30
2019-03-03T10:16:02.558Z,5.20
2019-03-03T10:17:02.536Z,4.50
2019-03-03T10:18:02.518Z,5.50
2019-03-03T10:19:07.144Z,5.60
2019-03-03T10:20:02.480Z,4.00
2019-03-03T10:21:03.264Z,3.00
2019-03-03T10:22:02.442Z,5.30
2019-03-03T10:23:02.416Z,4.40
2019-03-03T10:24:02.406Z,3.70
2019-03-03T10:25:02.379Z,3.70
2019-03-03T10:26:02.360Z,3.70
2019-03-03T10:27:02.337Z,4.80
2019-03-03T10:28:02.323Z,4.50
2019-03-03T10:29:02.300Z,4.60
2019-03-03T10:30:02.283Z,4.30
2019-03-03T10:31:02.261Z,5.00
2019-03-03T10:32:02.239Z,4.70
2019-03-03T10:33:02.220Z,6.60
2019-03-03T10:34:02.208Z,4.70
2019-03-03T10:35:02.179Z,6.30
2019-03-03T10:36:02.169Z,5.00
2019-03-03T10:37:02.140Z,5.60
2019-03-03T10:38:02.131Z,6.70
2019-03-03T10:39:02.182Z,6.60
2019-03-03T10:40:02.099Z,7.10
2019-03-03T10:41:02.073Z,7.90
2019-03-03T10:42:02.044Z,7.50
2019-03-03T10:43:02.025Z,6.40
2019-03-03T10:44:02.007Z,6.70
2019-03-03T10:45:01.982Z,6.80
2019-03-03T10:46:01.967Z,6.10
2019-03-03T10:47:01.943Z,7.00
2019-03-03T10:48:01.927Z,7.40
2019-03-03T10:49:01.907Z,5.30
2019-03-03T10:50:01.892Z,5.80
2019-03-03T10:51:01.875Z,6.20
2019-03-03T10:52:01.848Z,4.60
2019-03-03T10:53:01.831Z,4.70
2019-03-03T10:54:01.818Z,6.70
2019-03-03T10:55:01.798Z,4.40
2019-03-03T10:56:01.772Z,5.20
2019-03-03T10:57:01.754Z,4.50
2019-03-03T10:58:01.738Z,5.10
2019-03-03T10:59:01.711Z,4.00
2019-03-03T11:00:01.700Z,6.90
2019-03-03T11:01:01.678Z,5.70
2019-03-03T11:02:01.655Z,6.00
2019-03-03T11:03:02.648Z,6.20
2019-03-03T11:04:01.615Z,7.30
2019-03-03T11:05:01.594Z,6.10
2019-03-03T11:06:01.573Z,6.40
2019-03-03T11:07:01.558Z,6.20
2019-03-03T11:08:01.536Z,5.90
2019-03-03T11:09:01.521Z,5.80
2019-03-03T11:10:01.496Z,6.20
2019-03-03T11:11:01.479Z,6.40
2019-03-03T11:12:01.459Z,6.40
2019-03-03T11:13:01.467Z,7.20
2019-03-03T11:14:01.479Z,5.40
2019-03-03T11:15:01.401Z,6.00
2019-03-03T11:16:01.377Z,6.20
2019-03-03T11:17:01.366Z,7.40
2019-03-03T11:18:01.341Z,7.70
2019-03-03T11:19:01.322Z,6.50
2019-03-03T11:20:01.310Z,6.40
2019-03-03T11:21:01.286Z,5.40
2019-03-03T11:22:01.263Z,4.30
2019-03-03T11:23:01.237Z,4.50
2019-03-03T11:24:01.238Z,6.00
2019-03-03T11:25:01.203Z,4.80
2019-03-03T11:26:01.180Z,5.30
2019-03-03T11:27:01.162Z,6.00
2019-03-03T11:28:01.144Z,4.90
2019-03-03T11:29:01.123Z,6.50
2019-03-03T11:30:01.111Z,4.00
2019-03-03T11:31:01.084Z,5.10
2019-03-03T11:32:01.061Z,5.50
2019-03-03T11:33:01.046Z,5.00
2019-03-03T11:34:01.023Z,5.00
2019-03-03T11:35:01.012Z,6.40
2019-03-03T11:36:00.988Z,5.10
2019-03-03T11:37:00.969Z,4.10
2019-03-03T11:38:00.953Z,6.30
2019-03-03T11:39:00.928Z,4.30
2019-03-03T11:40:00.912Z,4.50
2019-03-03T11:41:00.899Z,3.60
2019-03-03T11:42:00.872Z,5.60
2019-03-03T11:43:00.854Z,5.10
2019-03-03T11:44:00.834Z,4.50
2019-03-03T11:45:00.816Z,4.80
2019-03-03T11:46:00.793Z,4.80
2019-03-03T11:47:00.771Z,4.70
2019-03-03T11:48:04.237Z,4.80
2019-03-03T11:49:00.735Z,5.80
2019-03-03T11:50:00.716Z,5.90
2019-03-03T11:51:00.697Z,5.90
2019-03-03T11:52:00.686Z,4.20
2019-03-03T11:53:00.661Z,4.70
2019-03-03T11:54:00.642Z,5.80
2019-03-03T11:55:00.973Z,5.80
2019-03-03T11:56:00.600Z,4.50
2019-03-03T11:57:00.580Z,5.50
2019-03-03T11:58:00.564Z,5.30
2019-03-03T11:59:00.551Z,6.10
2019-03-03T12:00:00.525Z,6.70
2019-03-03T12:01:00.512Z,7.30
2019-03-03T12:02:00.494Z,5.80
2019-03-03T12:03:00.465Z,5.80
2019-03-03T12:04:00.446Z,5.60
2019-03-03T12:05:00.492Z,5.50
2019-03-03T12:06:00.408Z,5.00
2019-03-03T12:07:00.390Z,4.90
2019-03-03T12:08:00.370Z,4.80
2019-03-03T12:09:00.355Z,3.90
2019-03-03T12:10:00.330Z,5.70
2019-03-03T12:11:00.315Z,5.20
2019-03-03T12:12:00.295Z,6.30
2019-03-03T12:13:00.276Z,6.20
2019-03-03T12:14:00.252Z,6.10
2019-03-03T12:15:00.315Z,8.20
2019-03-03T12:16:00.217Z,5.60
2019-03-03T12:17:00.194Z,5.00
2019-03-03T12:18:00.174Z,6.80
2019-03-03T12:19:01.703Z,6.50
2019-03-03T12:20:00.241Z,6.60
2019-03-03T12:21:00.118Z,7.80
2019-03-03T12:22:00.101Z,7.80
2019-03-03T12:23:00.078Z,10.50
2019-03-03T12:24:00.062Z,9.50
2019-03-03T12:25:00.042Z,8.90
2019-03-03T12:26:00.022Z,9.70
2019-03-03T12:27:00.002Z,8.90
2019-03-03T12:27:59.991Z,11.50
2019-03-03T12:28:59.959Z,11.60
2019-03-03T12:29:59.946Z,15.80
2019-03-03T12:30:59.932Z,11.10
2019-03-03T12:31:59.908Z,16.20
2019-03-03T12:32:59.887Z,13.20
2019-03-03T12:33:59.865Z,12.70
2019-03-03T12:34:59.842Z,15.90
2019-03-03T12:35:59.828Z,14.00
2019-03-03T12:36:59.802Z,12.20
2019-03-03T12:37:59.782Z,12.00
2019-03-03T12:38:59.763Z,11.90
2019-03-03T12:39:59.746Z,13.70
2019-03-03T12:40:59.724Z,11.90
2019-03-03T12:41:59.710Z,15.70
2019-03-03T12:42:59.681Z,13.80
2019-03-03T12:43:59.666Z,12.70
2019-03-03T12:44:59.651Z,15.60
2019-03-03T12:45:59.623Z,14.30
2019-03-03T12:46:59.605Z,11.90
2019-03-03T12:47:59.586Z,14.20
2019-03-03T12:48:59.563Z,12.50
2019-03-03T12:49:59.542Z,14.00
2019-03-03T12:50:59.533Z,13.50
2019-03-03T12:51:59.508Z,13.50
2019-03-03T12:52:59.482Z,14.00
2019-03-03T12:53:59.467Z,16.80
2019-03-03T12:54:59.447Z,12.70
2019-03-03T12:55:59.428Z,13.40
2019-03-03T12:56:59.403Z,10.90
2019-03-03T12:57:59.383Z,15.20
2019-03-03T12:58:59.368Z,16.00
2019-03-03T12:59:59.347Z,13.40
2019-03-03T13:00:59.333Z,16.90
2019-03-03T13:01:59.306Z,12.10